sensor_id;sensor_type;location;lat;lon;timestamp;P1;durP1;ratioP1;P2;durP2;ratioP2
50417;SDS011;36346;48.280;14.292;2024-03-23T00:55:01;17.75;;;17.69;;
50417;SDS011;36346;48.280;14.292;2024-03-23T00:57:28;17.34;;;17.34;;
50417;SDS011;36346;48.280;14.292;2024-03-23T00:59:55;18.06;;;18.06;;
50417;SDS011;36346;48.280;14.292;2024-03-23T01:02:22;18.19;;;18.19;;
50417;SDS011;36346;48.280;14.292;2024-03-23T01:04:49;18.71;;;18.71;;
50417;SDS011;36346;48.280;14.292;2024-03-23T01:07:16;18.10;;;18.10;;
50417;SDS011;36346;48.280;14.292;2024-03-23T01:09:43;19.38;;;19.38;;
50417;SDS011;36346;48.280;14.292;2024-03-23T01:12:10;19.53;;;19.53;;
50417;SDS011;36346;48.280;14.292;2024-03-23T01:14:37;19.15;;;19.15;;
50417;SDS011;36346;48.280;14.292;2024-03-23T01:17:04;19.54;;;19.54;;
50417;SDS011;36346;48.280;14.292;2024-03-23T01:19:31;19.62;;;19.58;;
50417;SDS011;36346;48.280;14.292;2024-03-23T01:21:58;20.03;;;20.03;;
50417;SDS011;36346;48.280;14.292;2024-03-23T01:24:25;19.22;;;19.22;;
50417;SDS011;36346;48.280;14.292;2024-03-23T01:26:52;19.23;;;19.22;;
50417;SDS011;36346;48.280;14.292;2024-03-23T01:29:19;19.68;;;19.68;;
50417;SDS011;36346;48.280;14.292;2024-03-23T01:31:46;19.39;;;19.39;;
50417;SDS011;36346;48.280;14.292;2024-03-23T01:34:13;19.56;;;19.56;;
50417;SDS011;36346;48.280;14.292;2024-03-23T01:36:40;19.93;;;19.93;;
50417;SDS011;36346;48.280;14.292;2024-03-23T01:39:07;20.09;;;20.09;;
50417;SDS011;36346;48.280;14.292;2024-03-23T01:41:36;20.15;;;20.15;;
50417;SDS011;36346;48.280;14.292;2024-03-23T01:44:05;19.65;;;19.57;;
50417;SDS011;36346;48.280;14.292;2024-03-23T01:46:37;20.30;;;20.30;;
50417;SDS011;36346;48.280;14.292;2024-03-23T01:49:05;21.43;;;21.43;;
50417;SDS011;36346;48.280;14.292;2024-03-23T01:51:32;20.83;;;20.83;;
50417;SDS011;36346;48.280;14.292;2024-03-23T01:54:01;20.40;;;20.40;;
50417;SDS011;36346;48.280;14.292;2024-03-23T01:56:31;20.52;;;20.52;;
50417;SDS011;36346;48.280;14.292;2024-03-23T01:59:03;20.36;;;20.36;;
50417;SDS011;36346;48.280;14.292;2024-03-23T02:01:31;20.94;;;20.94;;
50417;SDS011;36346;48.280;14.292;2024-03-23T02:03:58;20.31;;;20.31;;
50417;SDS011;36346;48.280;14.292;2024-03-23T02:06:26;21.11;;;21.11;;
50417;SDS011;36346;48.280;14.292;2024-03-23T02:08:53;20.60;;;20.60;;
50417;SDS011;36346;48.280;14.292;2024-03-23T02:11:21;19.87;;;19.87;;
50417;SDS011;36346;48.280;14.292;2024-03-23T02:13:49;19.30;;;19.29;;
50417;SDS011;36346;48.280;14.292;2024-03-23T02:16:16;19.17;;;19.16;;
50417;SDS011;36346;48.280;14.292;2024-03-23T02:18:43;18.73;;;18.73;;
50417;SDS011;36346;48.280;14.292;2024-03-23T02:21:10;17.24;;;17.24;;
50417;SDS011;36346;48.280;14.292;2024-03-23T02:23:37;16.88;;;16.88;;
50417;SDS011;36346;48.280;14.292;2024-03-23T02:26:04;17.17;;;17.17;;
50417;SDS011;36346;48.280;14.292;2024-03-23T02:28:31;18.09;;;18.09;;
50417;SDS011;36346;48.280;14.292;2024-03-23T02:30:59;17.44;;;17.44;;
50417;SDS011;36346;48.280;14.292;2024-03-23T02:33:27;15.58;;;15.58;;
50417;SDS011;36346;48.280;14.292;2024-03-23T02:35:58;15.40;;;15.40;;
50417;SDS011;36346;48.280;14.292;2024-03-23T02:38:25;15.42;;;15.42;;
50417;SDS011;36346;48.280;14.292;2024-03-23T02:40:52;14.77;;;14.77;;
50417;SDS011;36346;48.280;14.292;2024-03-23T02:43:19;15.19;;;15.19;;
50417;SDS011;36346;48.280;14.292;2024-03-23T02:45:46;15.19;;;15.19;;
50417;SDS011;36346;48.280;14.292;2024-03-23T02:48:13;15.23;;;15.23;;
50417;SDS011;36346;48.280;14.292;2024-03-23T02:50:40;14.95;;;14.95;;
50417;SDS011;36346;48.280;14.292;2024-03-23T02:53:07;15.62;;;15.62;;
50417;SDS011;36346;48.280;14.292;2024-03-23T02:55:34;15.18;;;15.18;;
50417;SDS011;36346;48.280;14.292;2024-03-23T02:58:01;15.70;;;15.70;;
50417;SDS011;36346;48.280;14.292;2024-03-23T03:00:28;15.79;;;15.79;;
50417;SDS011;36346;48.280;14.292;2024-03-23T03:02:55;15.20;;;15.20;;
50417;SDS011;36346;48.280;14.292;2024-03-23T03:05:22;15.16;;;15.16;;
50417;SDS011;36346;48.280;14.292;2024-03-23T03:07:49;15.07;;;15.07;;
50417;SDS011;36346;48.280;14.292;2024-03-23T03:10:16;15.15;;;15.15;;
50417;SDS011;36346;48.280;14.292;2024-03-23T03:12:43;15.31;;;15.31;;
50417;SDS011;36346;48.280;14.292;2024-03-23T03:15:10;15.27;;;15.27;;
50417;SDS011;36346;48.280;14.292;2024-03-23T03:17:37;14.99;;;14.99;;
50417;SDS011;36346;48.280;14.292;2024-03-23T03:20:04;14.88;;;14.88;;
50417;SDS011;36346;48.280;14.292;2024-03-23T03:22:32;15.08;;;15.08;;
50417;SDS011;36346;48.280;14.292;2024-03-23T03:24:59;15.41;;;15.41;;
50417;SDS011;36346;48.280;14.292;2024-03-23T03:27:27;16.05;;;16.05;;
50417;SDS011;36346;48.280;14.292;2024-03-23T03:29:53;15.46;;;15.46;;
50417;SDS011;36346;48.280;14.292;2024-03-23T03:32:21;15.60;;;15.60;;
50417;SDS011;36346;48.280;14.292;2024-03-23T03:34:48;16.11;;;16.11;;
50417;SDS011;36346;48.280;14.292;2024-03-23T03:37:16;16.31;;;16.31;;
50417;SDS011;36346;48.280;14.292;2024-03-23T03:39:43;16.18;;;16.18;;
50417;SDS011;36346;48.280;14.292;2024-03-23T03:42:10;16.30;;;16.30;;
50417;SDS011;36346;48.280;14.292;2024-03-23T03:44:37;17.34;;;17.34;;
50417;SDS011;36346;48.280;14.292;2024-03-23T03:47:06;17.49;;;17.49;;
50417;SDS011;36346;48.280;14.292;2024-03-23T03:49:34;16.90;;;16.90;;
50417;SDS011;36346;48.280;14.292;2024-03-23T03:52:01;17.26;;;17.26;;
50417;SDS011;36346;48.280;14.292;2024-03-23T03:54:28;17.73;;;17.73;;
50417;SDS011;36346;48.280;14.292;2024-03-23T03:56:55;17.53;;;17.53;;
50417;SDS011;36346;48.280;14.292;2024-03-23T03:59:22;17.96;;;17.92;;
50417;SDS011;36346;48.280;14.292;2024-03-23T04:01:49;18.11;;;18.11;;
50417;SDS011;36346;48.280;14.292;2024-03-23T04:04:16;17.59;;;17.59;;
50417;SDS011;36346;48.280;14.292;2024-03-23T04:06:43;16.99;;;16.99;;
50417;SDS011;36346;48.280;14.292;2024-03-23T04:09:10;16.84;;;16.84;;
50417;SDS011;36346;48.280;14.292;2024-03-23T04:11:37;17.27;;;17.27;;
50417;SDS011;36346;48.280;14.292;2024-03-23T04:14:04;17.96;;;17.96;;
50417;SDS011;36346;48.280;14.292;2024-03-23T04:16:34;17.12;;;17.12;;
50417;SDS011;36346;48.280;14.292;2024-03-23T04:19:01;17.00;;;17.00;;
50417;SDS011;36346;48.280;14.292;2024-03-23T04:21:28;16.56;;;16.56;;
50417;SDS011;36346;48.280;14.292;2024-03-23T04:23:55;17.28;;;17.28;;
50417;SDS011;36346;48.280;14.292;2024-03-23T04:26:22;17.76;;;17.75;;
50417;SDS011;36346;48.280;14.292;2024-03-23T04:28:49;18.07;;;18.07;;
50417;SDS011;36346;48.280;14.292;2024-03-23T04:31:16;17.06;;;17.06;;
50417;SDS011;36346;48.280;14.292;2024-03-23T04:33:43;17.99;;;17.99;;
50417;SDS011;36346;48.280;14.292;2024-03-23T04:36:10;17.28;;;17.28;;
50417;SDS011;36346;48.280;14.292;2024-03-23T04:38:37;18.07;;;18.07;;
50417;SDS011;36346;48.280;14.292;2024-03-23T04:41:04;16.91;;;16.91;;
50417;SDS011;36346;48.280;14.292;2024-03-23T04:43:31;17.57;;;17.57;;
50417;SDS011;36346;48.280;14.292;2024-03-23T04:45:58;17.50;;;17.50;;
50417;SDS011;36346;48.280;14.292;2024-03-23T04:48:25;17.75;;;17.75;;
50417;SDS011;36346;48.280;14.292;2024-03-23T04:50:57;18.46;;;18.46;;
50417;SDS011;36346;48.280;14.292;2024-03-23T04:53:24;18.30;;;18.30;;
50417;SDS011;36346;48.280;14.292;2024-03-23T04:55:55;17.96;;;17.96;;
50417;SDS011;36346;48.280;14.292;2024-03-23T04:58:23;18.66;;;18.66;;
50417;SDS011;36346;48.280;14.292;2024-03-23T05:00:54;18.68;;;18.68;;
50417;SDS011;36346;48.280;14.292;2024-03-23T05:03:22;19.19;;;19.18;;
50417;SDS011;36346;48.280;14.292;2024-03-23T05:05:49;18.38;;;18.38;;
50417;SDS011;36346;48.280;14.292;2024-03-23T05:08:16;18.13;;;18.09;;
50417;SDS011;36346;48.280;14.292;2024-03-23T05:10:43;18.22;;;18.22;;
50417;SDS011;36346;48.280;14.292;2024-03-23T05:13:10;18.67;;;18.67;;
50417;SDS011;36346;48.280;14.292;2024-03-23T05:15:37;18.89;;;18.89;;
50417;SDS011;36346;48.280;14.292;2024-03-23T05:18:05;19.05;;;19.05;;
50417;SDS011;36346;48.280;14.292;2024-03-23T05:20:32;19.13;;;19.13;;
50417;SDS011;36346;48.280;14.292;2024-03-23T05:22:59;18.92;;;18.92;;
50417;SDS011;36346;48.280;14.292;2024-03-23T05:25:26;18.30;;;18.30;;
50417;SDS011;36346;48.280;14.292;2024-03-23T05:27:53;18.80;;;18.80;;
50417;SDS011;36346;48.280;14.292;2024-03-23T05:30:20;18.82;;;18.82;;
50417;SDS011;36346;48.280;14.292;2024-03-23T05:32:47;20.00;;;19.95;;
50417;SDS011;36346;48.280;14.292;2024-03-23T05:35:14;19.38;;;19.38;;
50417;SDS011;36346;48.280;14.292;2024-03-23T05:37:41;20.26;;;20.26;;
50417;SDS011;36346;48.280;14.292;2024-03-23T05:40:08;19.77;;;19.77;;
50417;SDS011;36346;48.280;14.292;2024-03-23T05:42:36;20.35;;;20.35;;
50417;SDS011;36346;48.280;14.292;2024-03-23T05:45:03;20.48;;;20.48;;
50417;SDS011;36346;48.280;14.292;2024-03-23T05:47:33;20.32;;;20.32;;
50417;SDS011;36346;48.280;14.292;2024-03-23T05:50:00;19.55;;;19.55;;
50417;SDS011;36346;48.280;14.292;2024-03-23T05:52:29;19.72;;;19.72;;
50417;SDS011;36346;48.280;14.292;2024-03-23T05:54:56;20.08;;;20.08;;
50417;SDS011;36346;48.280;14.292;2024-03-23T05:57:24;20.15;;;20.12;;
50417;SDS011;36346;48.280;14.292;2024-03-23T05:59:52;20.80;;;20.80;;
50417;SDS011;36346;48.280;14.292;2024-03-23T06:02:19;21.17;;;21.17;;
50417;SDS011;36346;48.280;14.292;2024-03-23T06:04:46;21.35;;;21.35;;
50417;SDS011;36346;48.280;14.292;2024-03-23T06:07:13;21.40;;;21.40;;
50417;SDS011;36346;48.280;14.292;2024-03-23T06:09:41;21.39;;;21.39;;
50417;SDS011;36346;48.280;14.292;2024-03-23T06:12:08;21.76;;;21.76;;
50417;SDS011;36346;48.280;14.292;2024-03-23T06:14:35;21.65;;;21.65;;
50417;SDS011;36346;48.280;14.292;2024-03-23T06:17:02;22.27;;;22.27;;
50417;SDS011;36346;48.280;14.292;2024-03-23T06:19:29;22.18;;;22.18;;
50417;SDS011;36346;48.280;14.292;2024-03-23T06:21:56;22.45;;;22.45;;
50417;SDS011;36346;48.280;14.292;2024-03-23T06:24:23;22.13;;;22.13;;
50417;SDS011;36346;48.280;14.292;2024-03-23T06:26:51;21.71;;;21.71;;
50417;SDS011;36346;48.280;14.292;2024-03-23T06:29:18;21.46;;;21.46;;
50417;SDS011;36346;48.280;14.292;2024-03-23T06:31:51;22.24;;;22.22;;
50417;SDS011;36346;48.280;14.292;2024-03-23T06:34:19;21.74;;;21.73;;
50417;SDS011;36346;48.280;14.292;2024-03-23T06:36:48;21.88;;;21.88;;
50417;SDS011;36346;48.280;14.292;2024-03-23T06:39:16;21.21;;;21.21;;
50417;SDS011;36346;48.280;14.292;2024-03-23T06:41:44;21.03;;;21.03;;
50417;SDS011;36346;48.280;14.292;2024-03-23T06:44:19;22.33;;;22.26;;
50417;SDS011;36346;48.280;14.292;2024-03-23T06:46:46;22.43;;;22.41;;
50417;SDS011;36346;48.280;14.292;2024-03-23T06:49:15;22.89;;;22.89;;
50417;SDS011;36346;48.280;14.292;2024-03-23T06:51:42;23.71;;;23.71;;
50417;SDS011;36346;48.280;14.292;2024-03-23T06:54:09;22.47;;;22.47;;
50417;SDS011;36346;48.280;14.292;2024-03-23T06:56:37;24.02;;;24.02;;
50417;SDS011;36346;48.280;14.292;2024-03-23T06:59:04;23.85;;;23.81;;
50417;SDS011;36346;48.280;14.292;2024-03-23T07:01:31;23.86;;;23.86;;
50417;SDS011;36346;48.280;14.292;2024-03-23T07:03:58;22.81;;;22.81;;
50417;SDS011;36346;48.280;14.292;2024-03-23T07:06:25;21.22;;;21.22;;
50417;SDS011;36346;48.280;14.292;2024-03-23T07:08:52;23.47;;;23.47;;
50417;SDS011;36346;48.280;14.292;2024-03-23T07:11:21;30.79;;;30.79;;
50417;SDS011;36346;48.280;14.292;2024-03-23T07:13:52;26.47;;;26.42;;
50417;SDS011;36346;48.280;14.292;2024-03-23T07:16:23;23.30;;;23.30;;
50417;SDS011;36346;48.280;14.292;2024-03-23T07:18:50;23.51;;;23.51;;
50417;SDS011;36346;48.280;14.292;2024-03-23T07:21:17;24.41;;;24.41;;
50417;SDS011;36346;48.280;14.292;2024-03-23T07:23:44;25.07;;;25.07;;
50417;SDS011;36346;48.280;14.292;2024-03-23T07:26:11;25.02;;;25.02;;
50417;SDS011;36346;48.280;14.292;2024-03-23T07:28:40;25.42;;;25.36;;
50417;SDS011;36346;48.280;14.292;2024-03-23T07:31:11;23.84;;;23.83;;
50417;SDS011;36346;48.280;14.292;2024-03-23T07:33:41;23.36;;;23.35;;
50417;SDS011;36346;48.280;14.292;2024-03-23T07:36:10;23.66;;;23.64;;
50417;SDS011;36346;48.280;14.292;2024-03-23T07:38:37;24.15;;;24.13;;
50417;SDS011;36346;48.280;14.292;2024-03-23T07:41:08;23.39;;;23.36;;
50417;SDS011;36346;48.280;14.292;2024-03-23T07:43:39;23.91;;;23.90;;
50417;SDS011;36346;48.280;14.292;2024-03-23T07:46:06;23.35;;;23.35;;
50417;SDS011;36346;48.280;14.292;2024-03-23T07:48:33;24.29;;;24.29;;
50417;SDS011;36346;48.280;14.292;2024-03-23T07:53:32;24.44;;;24.43;;
50417;SDS011;36346;48.280;14.292;2024-03-23T07:56:09;24.08;;;24.08;;
50417;SDS011;36346;48.280;14.292;2024-03-23T07:58:37;21.28;;;21.27;;
50417;SDS011;36346;48.280;14.292;2024-03-23T08:01:06;19.27;;;19.27;;
50417;SDS011;36346;48.280;14.292;2024-03-23T08:03:37;21.38;;;21.38;;
50417;SDS011;36346;48.280;14.292;2024-03-23T08:06:06;28.05;;;28.00;;
50417;SDS011;36346;48.280;14.292;2024-03-23T08:08:44;22.25;;;22.25;;
50417;SDS011;36346;48.280;14.292;2024-03-23T08:11:11;22.91;;;22.91;;
50417;SDS011;36346;48.280;14.292;2024-03-23T08:13:39;22.24;;;22.24;;
50417;SDS011;36346;48.280;14.292;2024-03-23T08:16:07;20.45;;;20.42;;
50417;SDS011;36346;48.280;14.292;2024-03-23T08:18:35;22.87;;;22.87;;
50417;SDS011;36346;48.280;14.292;2024-03-23T08:21:03;23.41;;;23.41;;
50417;SDS011;36346;48.280;14.292;2024-03-23T08:23:32;23.97;;;23.97;;
50417;SDS011;36346;48.280;14.292;2024-03-23T08:26:00;20.33;;;20.28;;
50417;SDS011;36346;48.280;14.292;2024-03-23T08:28:29;16.60;;;16.60;;
50417;SDS011;36346;48.280;14.292;2024-03-23T08:30:56;17.12;;;17.11;;
50417;SDS011;36346;48.280;14.292;2024-03-23T08:33:24;15.52;;;15.51;;
50417;SDS011;36346;48.280;14.292;2024-03-23T08:35:54;13.97;;;13.97;;
50417;SDS011;36346;48.280;14.292;2024-03-23T08:38:24;13.84;;;13.84;;
50417;SDS011;36346;48.280;14.292;2024-03-23T08:40:59;14.08;;;14.08;;
50417;SDS011;36346;48.280;14.292;2024-03-23T08:43:27;12.96;;;12.96;;
50417;SDS011;36346;48.280;14.292;2024-03-23T08:46:06;14.14;;;14.14;;
50417;SDS011;36346;48.280;14.292;2024-03-23T08:48:46;13.40;;;13.40;;
50417;SDS011;36346;48.280;14.292;2024-03-23T08:51:16;14.38;;;14.38;;
50417;SDS011;36346;48.280;14.292;2024-03-23T08:53:43;14.61;;;14.61;;
50417;SDS011;36346;48.280;14.292;2024-03-23T08:56:12;15.19;;;15.19;;
50417;SDS011;36346;48.280;14.292;2024-03-23T08:58:39;14.84;;;14.84;;
50417;SDS011;36346;48.280;14.292;2024-03-23T09:01:07;11.30;;;11.30;;
50417;SDS011;36346;48.280;14.292;2024-03-23T09:03:41;11.71;;;11.71;;
50417;SDS011;36346;48.280;14.292;2024-03-23T09:06:09;11.08;;;11.08;;
50417;SDS011;36346;48.280;14.292;2024-03-23T09:08:38;11.27;;;11.27;;
50417;SDS011;36346;48.280;14.292;2024-03-23T09:11:08;11.59;;;11.59;;
50417;SDS011;36346;48.280;14.292;2024-03-23T09:13:37;10.76;;;10.76;;
50417;SDS011;36346;48.280;14.292;2024-03-23T09:16:05;10.46;;;10.46;;
50417;SDS011;36346;48.280;14.292;2024-03-23T09:18:33;10.68;;;10.68;;
50417;SDS011;36346;48.280;14.292;2024-03-23T09:21:02;10.26;;;10.26;;
50417;SDS011;36346;48.280;14.292;2024-03-23T09:23:30;9.53;;;9.53;;
50417;SDS011;36346;48.280;14.292;2024-03-23T09:25:57;11.13;;;11.13;;
50417;SDS011;36346;48.280;14.292;2024-03-23T09:28:24;10.87;;;10.87;;
50417;SDS011;36346;48.280;14.292;2024-03-23T09:30:51;10.24;;;10.24;;
50417;SDS011;36346;48.280;14.292;2024-03-23T09:33:18;9.67;;;9.67;;
50417;SDS011;36346;48.280;14.292;2024-03-23T09:35:45;8.83;;;8.83;;
50417;SDS011;36346;48.280;14.292;2024-03-23T09:38:13;8.60;;;8.60;;
50417;SDS011;36346;48.280;14.292;2024-03-23T09:40:41;8.46;;;8.46;;
50417;SDS011;36346;48.280;14.292;2024-03-23T09:43:12;8.38;;;8.38;;
50417;SDS011;36346;48.280;14.292;2024-03-23T09:45:39;8.49;;;8.49;;
50417;SDS011;36346;48.280;14.292;2024-03-23T09:48:08;9.05;;;9.05;;
50417;SDS011;36346;48.280;14.292;2024-03-23T09:50:37;7.30;;;7.30;;
50417;SDS011;36346;48.280;14.292;2024-03-23T09:53:06;7.80;;;7.80;;
50417;SDS011;36346;48.280;14.292;2024-03-23T09:55:35;8.42;;;8.42;;
50417;SDS011;36346;48.280;14.292;2024-03-23T09:58:02;6.74;;;6.74;;
50417;SDS011;36346;48.280;14.292;2024-03-23T10:00:35;6.31;;;6.31;;
50417;SDS011;36346;48.280;14.292;2024-03-23T10:03:02;6.12;;;6.12;;
50417;SDS011;36346;48.280;14.292;2024-03-23T10:05:29;5.94;;;5.94;;
50417;SDS011;36346;48.280;14.292;2024-03-23T10:07:58;6.39;;;6.39;;
50417;SDS011;36346;48.280;14.292;2024-03-23T10:10:25;5.80;;;5.80;;
50417;SDS011;36346;48.280;14.292;2024-03-23T10:12:53;5.64;;;5.64;;
50417;SDS011;36346;48.280;14.292;2024-03-23T10:15:21;5.49;;;5.49;;
50417;SDS011;36346;48.280;14.292;2024-03-23T10:17:50;5.04;;;5.04;;
50417;SDS011;36346;48.280;14.292;2024-03-23T10:20:22;4.25;;;4.25;;
50417;SDS011;36346;48.280;14.292;2024-03-23T10:22:50;3.43;;;3.43;;
50417;SDS011;36346;48.280;14.292;2024-03-23T10:25:22;2.84;;;2.84;;
50417;SDS011;36346;48.280;14.292;2024-03-23T10:27:59;2.77;;;2.77;;
50417;SDS011;36346;48.280;14.292;2024-03-23T10:30:31;2.54;;;2.54;;
50417;SDS011;36346;48.280;14.292;2024-03-23T10:33:08;2.53;;;2.53;;
50417;SDS011;36346;48.280;14.292;2024-03-23T10:35:36;2.69;;;2.69;;
50417;SDS011;36346;48.280;14.292;2024-03-23T10:38:04;2.12;;;2.12;;
50417;SDS011;36346;48.280;14.292;2024-03-23T10:40:36;2.01;;;2.01;;
50417;SDS011;36346;48.280;14.292;2024-03-23T10:43:03;1.84;;;1.84;;
50417;SDS011;36346;48.280;14.292;2024-03-23T10:45:31;1.51;;;1.51;;
50417;SDS011;36346;48.280;14.292;2024-03-23T10:47:58;1.46;;;1.46;;
50417;SDS011;36346;48.280;14.292;2024-03-23T10:50:25;1.50;;;1.50;;
50417;SDS011;36346;48.280;14.292;2024-03-23T10:52:53;1.42;;;1.42;;
50417;SDS011;36346;48.280;14.292;2024-03-23T10:55:22;1.37;;;1.37;;
50417;SDS011;36346;48.280;14.292;2024-03-23T10:57:51;1.25;;;1.25;;
50417;SDS011;36346;48.280;14.292;2024-03-23T11:00:21;1.28;;;1.28;;
50417;SDS011;36346;48.280;14.292;2024-03-23T11:02:49;1.16;;;1.16;;
50417;SDS011;36346;48.280;14.292;2024-03-23T11:07:53;1.05;;;1.05;;
50417;SDS011;36346;48.280;14.292;2024-03-23T11:10:30;1.20;;;1.20;;
50417;SDS011;36346;48.280;14.292;2024-03-23T11:12:58;1.18;;;1.18;;
50417;SDS011;36346;48.280;14.292;2024-03-23T11:15:48;1.09;;;1.09;;
50417;SDS011;36346;48.280;14.292;2024-03-23T11:18:20;1.09;;;1.09;;
50417;SDS011;36346;48.280;14.292;2024-03-23T11:20:48;1.03;;;1.03;;
50417;SDS011;36346;48.280;14.292;2024-03-23T11:23:28;1.00;;;1.00;;
50417;SDS011;36346;48.280;14.292;2024-03-23T11:25:55;1.16;;;1.16;;
50417;SDS011;36346;48.280;14.292;2024-03-23T11:28:22;1.25;;;1.25;;
50417;SDS011;36346;48.280;14.292;2024-03-23T11:30:49;1.23;;;1.23;;
50417;SDS011;36346;48.280;14.292;2024-03-23T11:33:16;1.10;;;1.10;;
50417;SDS011;36346;48.280;14.292;2024-03-23T11:35:44;1.05;;;1.05;;
50417;SDS011;36346;48.280;14.292;2024-03-23T11:38:15;2.52;;;2.51;;
50417;SDS011;36346;48.280;14.292;2024-03-23T11:40:46;1.27;;;1.25;;
50417;SDS011;36346;48.280;14.292;2024-03-23T11:43:19;2.18;;;2.16;;
50417;SDS011;36346;48.280;14.292;2024-03-23T11:45:48;1.65;;;1.63;;
50417;SDS011;36346;48.280;14.292;2024-03-23T11:48:22;2.06;;;2.03;;
50417;SDS011;36346;48.280;14.292;2024-03-23T11:50:50;1.73;;;1.72;;
50417;SDS011;36346;48.280;14.292;2024-03-23T11:53:21;1.50;;;1.49;;
50417;SDS011;36346;48.280;14.292;2024-03-23T11:55:53;1.59;;;1.59;;
50417;SDS011;36346;48.280;14.292;2024-03-23T11:58:22;1.87;;;1.87;;
50417;SDS011;36346;48.280;14.292;2024-03-23T12:03:24;2.40;;;2.40;;
50417;SDS011;36346;48.280;14.292;2024-03-23T12:05:53;1.89;;;1.87;;
50417;SDS011;36346;48.280;14.292;2024-03-23T12:08:28;1.88;;;1.87;;
50417;SDS011;36346;48.280;14.292;2024-03-23T12:13:38;1.80;;;1.80;;
50417;SDS011;36346;48.280;14.292;2024-03-23T12:16:09;1.92;;;1.92;;
50417;SDS011;36346;48.280;14.292;2024-03-23T12:18:39;1.71;;;1.71;;
50417;SDS011;36346;48.280;14.292;2024-03-23T12:21:08;1.74;;;1.74;;
50417;SDS011;36346;48.280;14.292;2024-03-23T12:23:35;2.04;;;2.04;;
50417;SDS011;36346;48.280;14.292;2024-03-23T12:26:03;1.81;;;1.81;;
50417;SDS011;36346;48.280;14.292;2024-03-23T12:28:30;1.72;;;1.72;;
50417;SDS011;36346;48.280;14.292;2024-03-23T12:30:57;2.03;;;2.03;;
50417;SDS011;36346;48.280;14.292;2024-03-23T12:33:24;2.16;;;2.16;;
50417;SDS011;36346;48.280;14.292;2024-03-23T12:35:52;2.14;;;2.14;;
50417;SDS011;36346;48.280;14.292;2024-03-23T12:38:20;2.15;;;2.15;;
50417;SDS011;36346;48.280;14.292;2024-03-23T12:40:47;2.19;;;2.19;;
50417;SDS011;36346;48.280;14.292;2024-03-23T12:43:15;2.60;;;2.60;;
50417;SDS011;36346;48.280;14.292;2024-03-23T12:45:48;2.33;;;2.33;;
50417;SDS011;36346;48.280;14.292;2024-03-23T12:48:16;2.36;;;2.36;;
50417;SDS011;36346;48.280;14.292;2024-03-23T12:50:43;2.56;;;2.56;;
50417;SDS011;36346;48.280;14.292;2024-03-23T12:53:10;2.26;;;2.26;;
50417;SDS011;36346;48.280;14.292;2024-03-23T12:55:37;2.26;;;2.26;;
50417;SDS011;36346;48.280;14.292;2024-03-23T12:58:04;2.26;;;2.26;;
50417;SDS011;36346;48.280;14.292;2024-03-23T13:00:31;2.14;;;2.14;;
50417;SDS011;36346;48.280;14.292;2024-03-23T13:02:58;2.01;;;2.01;;
50417;SDS011;36346;48.280;14.292;2024-03-23T13:05:25;1.67;;;1.67;;
50417;SDS011;36346;48.280;14.292;2024-03-23T13:07:52;1.31;;;1.31;;
50417;SDS011;36346;48.280;14.292;2024-03-23T13:10:19;1.46;;;1.46;;
50417;SDS011;36346;48.280;14.292;2024-03-23T13:12:46;1.40;;;1.40;;
50417;SDS011;36346;48.280;14.292;2024-03-23T13:15:13;1.50;;;1.50;;
50417;SDS011;36346;48.280;14.292;2024-03-23T13:17:43;1.39;;;1.39;;
50417;SDS011;36346;48.280;14.292;2024-03-23T13:20:10;1.37;;;1.37;;
50417;SDS011;36346;48.280;14.292;2024-03-23T13:22:40;1.57;;;1.56;;
50417;SDS011;36346;48.280;14.292;2024-03-23T13:25:07;1.67;;;1.67;;
50417;SDS011;36346;48.280;14.292;2024-03-23T13:27:34;1.84;;;1.84;;
50417;SDS011;36346;48.280;14.292;2024-03-23T13:30:02;1.62;;;1.62;;
50417;SDS011;36346;48.280;14.292;2024-03-23T13:32:30;1.68;;;1.68;;
50417;SDS011;36346;48.280;14.292;2024-03-23T13:34:57;1.59;;;1.59;;
50417;SDS011;36346;48.280;14.292;2024-03-23T13:37:24;1.58;;;1.58;;
50417;SDS011;36346;48.280;14.292;2024-03-23T13:39:51;1.59;;;1.59;;
50417;SDS011;36346;48.280;14.292;2024-03-23T13:42:18;1.48;;;1.48;;
50417;SDS011;36346;48.280;14.292;2024-03-23T13:44:45;1.48;;;1.48;;
50417;SDS011;36346;48.280;14.292;2024-03-23T13:47:12;1.37;;;1.37;;
50417;SDS011;36346;48.280;14.292;2024-03-23T13:49:40;5.00;;;4.48;;
50417;SDS011;36346;48.280;14.292;2024-03-23T13:52:07;1.58;;;1.34;;
50417;SDS011;36346;48.280;14.292;2024-03-23T13:54:34;1.50;;;1.34;;
50417;SDS011;36346;48.280;14.292;2024-03-23T13:57:01;1.50;;;1.34;;
50417;SDS011;36346;48.280;14.292;2024-03-23T13:59:29;1.19;;;1.09;;
50417;SDS011;36346;48.280;14.292;2024-03-23T14:01:56;1.56;;;1.43;;
50417;SDS011;36346;48.280;14.292;2024-03-23T14:04:23;1.63;;;1.48;;
50417;SDS011;36346;48.280;14.292;2024-03-23T14:06:51;1.17;;;1.06;;
50417;SDS011;36346;48.280;14.292;2024-03-23T14:09:18;1.93;;;1.81;;
50417;SDS011;36346;48.280;14.292;2024-03-23T14:11:49;1.34;;;1.30;;
50417;SDS011;36346;48.280;14.292;2024-03-23T14:14:17;1.41;;;1.39;;
50417;SDS011;36346;48.280;14.292;2024-03-23T14:16:45;1.73;;;1.73;;
50417;SDS011;36346;48.280;14.292;2024-03-23T14:19:11;1.70;;;1.70;;
50417;SDS011;36346;48.280;14.292;2024-03-23T14:21:38;1.63;;;1.63;;
50417;SDS011;36346;48.280;14.292;2024-03-23T14:24:05;1.83;;;1.83;;
50417;SDS011;36346;48.280;14.292;2024-03-23T14:26:33;2.79;;;2.79;;
50417;SDS011;36346;48.280;14.292;2024-03-23T14:29:00;2.55;;;2.54;;
50417;SDS011;36346;48.280;14.292;2024-03-23T14:31:26;1.76;;;1.76;;
50417;SDS011;36346;48.280;14.292;2024-03-23T14:33:54;1.15;;;1.15;;
50417;SDS011;36346;48.280;14.292;2024-03-23T14:36:20;1.07;;;1.06;;
50417;SDS011;36346;48.280;14.292;2024-03-23T14:38:48;1.14;;;1.13;;
50417;SDS011;36346;48.280;14.292;2024-03-23T14:41:15;1.16;;;1.16;;
50417;SDS011;36346;48.280;14.292;2024-03-23T14:43:42;1.33;;;1.33;;
50417;SDS011;36346;48.280;14.292;2024-03-23T14:46:15;1.20;;;1.20;;
50417;SDS011;36346;48.280;14.292;2024-03-23T14:48:43;2.06;;;2.06;;
50417;SDS011;36346;48.280;14.292;2024-03-23T14:51:11;2.52;;;2.52;;
50417;SDS011;36346;48.280;14.292;2024-03-23T14:53:39;1.96;;;1.96;;
50417;SDS011;36346;48.280;14.292;2024-03-23T14:56:08;1.95;;;1.95;;
50417;SDS011;36346;48.280;14.292;2024-03-23T14:58:38;2.16;;;2.16;;
50417;SDS011;36346;48.280;14.292;2024-03-23T15:01:06;2.00;;;2.00;;
50417;SDS011;36346;48.280;14.292;2024-03-23T15:03:37;2.25;;;2.25;;
50417;SDS011;36346;48.280;14.292;2024-03-23T15:06:09;2.53;;;2.53;;
50417;SDS011;36346;48.280;14.292;2024-03-23T15:08:37;2.22;;;2.22;;
50417;SDS011;36346;48.280;14.292;2024-03-23T15:11:04;2.40;;;2.40;;
50417;SDS011;36346;48.280;14.292;2024-03-23T15:13:35;2.19;;;2.19;;
50417;SDS011;36346;48.280;14.292;2024-03-23T15:16:03;2.77;;;2.77;;
50417;SDS011;36346;48.280;14.292;2024-03-23T15:18:31;2.65;;;2.65;;
50417;SDS011;36346;48.280;14.292;2024-03-23T15:20:59;2.51;;;2.51;;
50417;SDS011;36346;48.280;14.292;2024-03-23T15:23:29;2.81;;;2.81;;
50417;SDS011;36346;48.280;14.292;2024-03-23T15:25:57;3.22;;;3.22;;
50417;SDS011;36346;48.280;14.292;2024-03-23T15:28:25;2.68;;;2.68;;